createdAt,value
2022-11-08T00:03:11.847Z,9.07
2022-11-08T00:08:33.710Z,9.19
2022-11-08T00:13:53.997Z,9.21
2022-11-08T00:18:57.061Z,9.26
2022-11-08T00:24:01.337Z,9.25
2022-11-08T00:29:04.348Z,9.31
2022-11-08T00:34:07.302Z,9.32
2022-11-08T00:39:12.229Z,9.17
2022-11-08T00:44:15.147Z,9.13
2022-11-08T00:49:18.507Z,9.31
2022-11-08T00:54:23.091Z,9.13
2022-11-08T00:59:25.966Z,9.26
2022-11-08T01:04:28.922Z,9.34
2022-11-08T01:09:33.196Z,9.25
2022-11-08T01:14:36.099Z,9.45
2022-11-08T01:19:39.004Z,9.37
2022-11-08T01:24:43.288Z,9.22
2022-11-08T01:29:46.179Z,9.38
2022-11-08T01:34:49.090Z,9.42
2022-11-08T01:39:53.358Z,9.02
2022-11-08T01:45:00.079Z,8.87
2022-11-08T01:50:07.035Z,8.92
2022-11-08T01:55:20.924Z,8.80
2022-11-08T02:00:24.047Z,8.90
2022-11-08T02:05:29.426Z,8.77
2022-11-08T02:10:36.703Z,8.65
2022-11-08T02:15:39.754Z,8.51
2022-11-08T02:20:47.911Z,8.22
2022-11-08T02:25:52.390Z,8.32
2022-11-08T02:30:55.319Z,8.03
2022-11-08T02:35:58.764Z,7.93
2022-11-08T02:41:03.052Z,7.87
2022-11-08T02:46:06.350Z,8.00
2022-11-08T02:51:09.262Z,8.08
2022-11-08T02:56:13.662Z,7.85
2022-11-08T03:01:16.678Z,8.04
2022-11-08T03:06:19.639Z,7.84
2022-11-08T03:11:23.969Z,7.86
2022-11-08T03:16:26.948Z,7.94
2022-11-08T03:21:29.867Z,7.90
2022-11-08T03:26:34.226Z,8.14
2022-11-08T03:31:37.159Z,8.10
2022-11-08T03:36:40.054Z,7.92
2022-11-08T03:41:44.742Z,7.87
2022-11-08T03:46:47.674Z,8.07
2022-11-08T03:51:50.586Z,8.09
2022-11-08T03:56:54.832Z,7.98
2022-11-08T04:01:57.833Z,7.68
2022-11-08T04:07:00.866Z,7.71
2022-11-08T04:12:23.098Z,7.43
2022-11-08T04:17:46.347Z,7.57
2022-11-08T04:22:49.988Z,7.58
2022-11-08T04:27:54.391Z,7.60
2022-11-08T04:32:57.276Z,7.62
2022-11-08T04:38:00.879Z,7.71
2022-11-08T04:43:05.178Z,7.56
2022-11-08T04:48:08.276Z,7.26
2022-11-08T04:53:11.158Z,7.12
2022-11-08T04:58:15.772Z,7.02
2022-11-08T05:03:19.052Z,6.90
2022-11-08T05:08:22.006Z,6.69
2022-11-08T05:13:26.314Z,6.73
2022-11-08T05:18:29.650Z,6.66
2022-11-08T05:23:32.572Z,6.58
2022-11-08T05:28:37.004Z,6.44
2022-11-08T05:33:39.941Z,6.61
2022-11-08T05:38:43.719Z,6.46
2022-11-08T05:43:49.429Z,6.31
2022-11-08T05:48:52.739Z,6.63
2022-11-08T05:53:55.687Z,6.58
2022-11-08T05:58:59.990Z,6.59
2022-11-08T06:04:03.188Z,6.71
2022-11-08T06:09:06.087Z,6.79
2022-11-08T06:14:10.440Z,6.37
2022-11-08T06:19:13.424Z,6.28
2022-11-08T06:24:17.375Z,6.34
2022-11-08T06:29:21.709Z,6.36
2022-11-08T06:34:24.680Z,6.37
2022-11-08T06:39:27.638Z,6.54
2022-11-08T06:44:31.959Z,6.25
2022-11-08T06:49:37.082Z,6.25
2022-11-08T06:54:39.991Z,6.78
2022-11-08T06:59:44.280Z,7.31
2022-11-08T07:04:47.178Z,7.67
2022-11-08T07:09:50.223Z,7.18
2022-11-08T07:14:54.462Z,6.94
2022-11-08T07:19:57.349Z,6.89
2022-11-08T07:25:00.276Z,6.81
2022-11-08T07:30:06.047Z,6.85
2022-11-08T07:35:09.437Z,6.91
2022-11-08T07:40:13.362Z,7.22
2022-11-08T07:45:17.804Z,7.63
2022-11-08T07:50:22.270Z,8.00
2022-11-08T07:55:25.171Z,7.99
2022-11-08T08:00:29.608Z,8.45
2022-11-08T08:05:36.793Z,8.65
2022-11-08T08:10:40.426Z,9.22
2022-11-08T08:15:44.700Z,9.13
2022-11-08T08:20:48.051Z,9.55
2022-11-08T08:25:50.960Z,9.64
2022-11-08T08:30:55.238Z,10.06
2022-11-08T08:36:00.913Z,10.30
2022-11-08T08:41:04.188Z,10.69
2022-11-08T08:46:08.538Z,11.15
2022-11-08T08:51:11.416Z,11.29
2022-11-08T08:56:14.335Z,11.51
2022-11-08T09:06:41.537Z,11.82
2022-11-08T09:11:44.456Z,11.93
2022-11-08T09:16:48.707Z,11.48
2022-11-08T09:21:51.828Z,11.89
2022-11-08T09:26:54.808Z,12.15
2022-11-08T09:31:59.098Z,12.30
2022-11-08T09:37:02.006Z,12.37
2022-11-08T09:42:22.417Z,12.63
2022-11-08T09:47:31.629Z,12.71
2022-11-08T09:52:36.312Z,12.67
2022-11-08T09:57:51.568Z,12.95
2022-11-08T10:02:55.961Z,13.03
2022-11-08T10:08:08.209Z,13.23
2022-11-08T10:13:23.683Z,12.84
2022-11-08T10:18:41.804Z,13.15
2022-11-08T10:23:46.550Z,13.56
2022-11-08T10:28:55.323Z,13.74
2022-11-08T10:34:00.301Z,13.65
2022-11-08T10:39:11.299Z,13.94
2022-11-08T10:44:16.340Z,13.97
2022-11-08T10:49:24.206Z,14.24
2022-11-08T10:54:51.210Z,14.06
2022-11-08T10:59:55.968Z,14.10
2022-11-08T11:05:26.983Z,14.26
2022-11-08T11:10:32.213Z,14.20
2022-11-08T11:15:37.476Z,14.27
2022-11-08T11:20:42.825Z,14.15
2022-11-08T11:25:52.381Z,14.32
2022-11-08T11:31:01.232Z,14.21
2022-11-08T11:36:13.867Z,14.34
2022-11-08T11:41:20.262Z,14.06
2022-11-08T11:46:31.222Z,14.05
2022-11-08T11:51:35.622Z,13.74
2022-11-08T11:56:46.767Z,14.12
2022-11-08T12:02:03.444Z,14.06
2022-11-08T12:07:15.857Z,14.37
2022-11-08T12:12:32.285Z,14.24
2022-11-08T12:17:59.044Z,14.14
2022-11-08T12:23:21.873Z,13.96
2022-11-08T12:28:42.442Z,14.07
2022-11-08T12:33:57.984Z,14.01
2022-11-08T12:39:13.817Z,13.96
2022-11-08T12:44:52.422Z,13.93
2022-11-08T12:50:03.613Z,13.67
2022-11-08T12:55:12.596Z,13.79
2022-11-08T13:00:18.531Z,13.66
2022-11-08T13:05:25.795Z,13.88
2022-11-08T13:10:37.624Z,13.84
2022-11-08T13:16:11.012Z,13.96
2022-11-08T13:21:38.328Z,13.50
2022-11-08T13:26:43.788Z,13.51
2022-11-08T13:31:54.731Z,13.50
2022-11-08T13:37:14.675Z,13.35
2022-11-08T13:42:56.213Z,13.37
2022-11-08T13:48:01.123Z,13.16
2022-11-08T13:53:05.849Z,12.98
2022-11-08T13:58:31.324Z,13.00
2022-11-08T14:03:56.674Z,12.93
2022-11-08T14:09:11.563Z,12.70
2022-11-08T14:14:31.041Z,12.62
2022-11-08T14:19:38.688Z,12.57
2022-11-08T14:24:41.698Z,12.59
2022-11-08T14:29:46.123Z,12.56
2022-11-08T14:34:49.154Z,12.11
2022-11-08T14:39:53.112Z,12.21
2022-11-08T14:44:58.931Z,12.00
2022-11-08T14:50:01.946Z,11.93
2022-11-08T14:55:07.553Z,11.86
2022-11-08T15:00:20.278Z,11.86
2022-11-08T15:05:40.437Z,11.79
2022-11-08T15:10:54.011Z,11.53
2022-11-08T15:16:02.434Z,11.34
2022-11-08T15:21:08.271Z,11.22
2022-11-08T15:26:24.385Z,11.22
2022-11-08T15:31:31.341Z,10.87
2022-11-08T15:36:36.643Z,10.82
2022-11-08T15:41:41.824Z,10.71
2022-11-08T15:46:46.298Z,10.34
2022-11-08T15:51:50.342Z,10.92
2022-11-08T15:56:55.356Z,10.73
2022-11-08T16:02:02.915Z,10.58
2022-11-08T16:07:06.053Z,10.64
2022-11-08T16:12:14.220Z,10.54
2022-11-08T16:17:18.574Z,10.54
2022-11-08T16:22:21.501Z,10.10
2022-11-08T16:27:24.430Z,10.08
2022-11-08T16:32:28.746Z,10.05
2022-11-08T16:37:31.743Z,10.15
2022-11-08T16:42:34.659Z,9.93
2022-11-08T16:47:39.029Z,9.55
2022-11-08T16:52:41.979Z,9.55
2022-11-08T16:57:45.576Z,9.40
2022-11-08T17:02:52.594Z,9.09
2022-11-08T17:07:55.738Z,9.23
2022-11-08T17:12:59.072Z,9.40
2022-11-08T17:18:03.632Z,9.35
2022-11-08T17:23:06.581Z,9.17
2022-11-08T17:28:10.231Z,9.07
2022-11-08T17:33:14.627Z,8.91
2022-11-08T17:38:17.539Z,8.76
2022-11-08T17:43:20.916Z,8.78
2022-11-08T17:48:25.466Z,9.19
2022-11-08T17:53:28.443Z,9.01
2022-11-08T17:58:33.460Z,8.61
2022-11-08T18:03:37.756Z,8.56
2022-11-08T18:08:41.942Z,8.72
2022-11-08T18:13:44.886Z,9.00
2022-11-08T18:18:49.890Z,10.38
2022-11-08T18:23:52.849Z,10.18
2022-11-08T18:28:55.831Z,9.70
2022-11-08T18:34:01.073Z,9.34
2022-11-08T18:39:04.222Z,9.00
2022-11-08T18:44:07.152Z,8.80
2022-11-08T18:49:11.612Z,8.68
2022-11-08T18:54:14.491Z,8.70
2022-11-08T18:59:17.787Z,8.70
2022-11-08T19:04:22.134Z,8.63
2022-11-08T19:09:25.102Z,8.77
2022-11-08T19:14:28.601Z,8.72
2022-11-08T19:19:33.232Z,8.60
2022-11-08T19:24:36.295Z,8.55
2022-11-08T19:29:39.251Z,8.63
2022-11-08T19:34:45.476Z,8.67
2022-11-08T19:39:48.923Z,8.81
2022-11-08T19:44:52.078Z,9.08
2022-11-08T19:49:56.509Z,9.50
2022-11-08T19:54:59.435Z,9.19
2022-11-08T20:00:06.694Z,8.94
2022-11-08T20:05:30.965Z,8.67
2022-11-08T20:10:33.895Z,8.68
2022-11-08T20:15:36.981Z,8.70
2022-11-08T20:20:41.697Z,8.67
2022-11-08T20:25:44.646Z,8.66
2022-11-08T20:30:47.570Z,8.55
2022-11-08T20:35:51.863Z,8.44
2022-11-08T20:40:54.816Z,8.53
2022-11-08T20:46:02.394Z,8.50
2022-11-08T20:51:08.136Z,8.31
2022-11-08T20:56:14.641Z,8.14
2022-11-08T21:01:19.435Z,8.13
2022-11-08T21:06:25.956Z,8.29
2022-11-08T21:11:30.296Z,8.30
2022-11-08T21:16:52.732Z,8.52
2022-11-08T21:22:15.098Z,8.54
2022-11-08T21:27:22.706Z,8.83
2022-11-08T21:32:27.566Z,8.44
2022-11-08T21:37:31.832Z,8.32
2022-11-08T21:42:39.084Z,8.38
2022-11-08T21:47:43.271Z,8.31
2022-11-08T21:52:48.342Z,8.39
2022-11-08T21:57:52.399Z,8.38
2022-11-08T22:02:55.487Z,8.35
2022-11-08T22:07:59.755Z,8.85
2022-11-08T22:13:02.695Z,8.88
2022-11-08T22:18:15.245Z,8.68
2022-11-08T22:23:20.537Z,8.51
2022-11-08T22:28:23.417Z,8.50
2022-11-08T22:33:26.328Z,8.48
2022-11-08T22:38:30.590Z,8.38
2022-11-08T22:43:34.575Z,8.35
2022-11-08T22:48:37.483Z,8.26
2022-11-08T22:53:41.903Z,8.21
2022-11-08T22:58:44.851Z,8.16
2022-11-08T23:03:48.851Z,8.14
2022-11-08T23:08:53.153Z,8.23
2022-11-08T23:14:13.661Z,8.59
2022-11-08T23:19:35.767Z,8.69
2022-11-08T23:24:40.570Z,8.73
2022-11-08T23:30:00.933Z,8.83
2022-11-08T23:35:04.040Z,8.71
2022-11-08T23:40:28.120Z,8.59
2022-11-08T23:45:31.222Z,8.74
2022-11-08T23:50:34.139Z,9.01
2022-11-08T23:55:38.437Z,9.25
